Airfield :
LOGIN :

Register | Disclaimer

   EN    FR    IT 

 










Legend :    VFR   Marginal VFR   IFR   Intensive IFR   Very Intensive IFR
Visi :
Ceiling :
>= 8 km
>= 3000ft
5 to 8 km
1000 to 3000 ft
1500m to 5 km
500 to 1000 ft
800 to 1500m
200 to 500 ft
< 800m
< 200 ft
Symbols :   Thunderstorms  Fog  Heavy snow  Heavy precipitations  Wind > 20 kt
SIGMETs :     Misc.  Thunderstorms  Icing  Turbulence  Mountain Waves  Volcanic Ashes







- Airport Elevation : 49 ft
- IATA code : GLZ


EHGR - Gilze-Rijen Airbase

CURRENT METAR :
  • 231625Z AUTO 20005KT 150V230 9999 FEW037 SCT064 BKN090 17/14 Q1012 BLU

EXPIRED METARs :
  • 231555Z AUTO 18008KT 150V210 9999 FEW034 BKN038 BKN043 17/14 Q1012 BLU
  • 231525Z AUTO 20011KT 150V250 9999 FEW015CB SCT036 BKN041 16/14 Q1012 BLU
  • 231455Z AUTO 18010KT 140V220 9999 FEW051 OVC120 17/14 Q1012 BLU
  • 231425Z AUTO 20008KT 150V230 9999 TS FEW015CB BKN051 OVC057 17/14 Q1013 BLU
  • 231355Z AUTO 18008KT 150V220 9999 FEW015CB BKN073 BKN089 16/13 Q1013 BLU
  • 231332Z AUTO 19007KT 140V220 9999 -RA FEW015CB OVC072 15/13 Q1013 BLU

Expired Forecast.
No reported NOTAMs for that airfield.



MET'MAP, your aeronautical weather chart ! - Copyright ORBIFLY December 2007 - Disclaimer

ORBIFLY MET'MAP TEAM :

Programming & Development : Alexandra Zaïnal
Concept & Development : Baudouin d'Aumeries
Co-Development & Prog : Marc-Olivier Méhu
Technical & hardware support : Manuel Goepfert

Contact : metmap@orbifly.com




SOURCES & CREDITS :

   NOAA